AAY621 KSAN-KFAT
Flight info
| Callsign | AAY621 |
|---|---|
| Flight time | 0h 55m |
| Altitude | 32000 |
| Route | PADRZ2 EHF TTE |
| Aircraft | A320/M-SDE3FGHIRWY/LB1 |
Departure
| Time | 2026-04-17 00:21 |
|---|---|
| Airport | San Diego International Airport (KSAN) |
Arrival
| Time | 2026-04-17 01:16 |
|---|---|
| Airport | Fresno Yosemite International Airport (KFAT) |
| Time | Latitude | Longitude | Altitude | Speed | Heading |
|---|---|---|---|---|---|
| 2026-04-16 23:50 | 32.73338 | -117.19907 | 20 ft | 0 kts | 117° |
| 2026-04-17 00:04 | 32.73341 | -117.19914 | 20 ft | 2 kts | 117° |
| 2026-04-17 00:05 | 32.73350 | -117.19935 | 22 ft | 3 kts | 115° |
| 2026-04-17 00:05 | 32.73358 | -117.19957 | 24 ft | 3 kts | 107° |
| 2026-04-17 00:05 | 32.73362 | -117.19979 | 23 ft | 3 kts | 77° |
| 2026-04-17 00:05 | 32.73357 | -117.19994 | 25 ft | 1 kts | 43° |
| 2026-04-17 00:06 | 32.73354 | -117.19997 | 25 ft | 0 kts | 43° |
| 2026-04-17 00:12 | 32.73355 | -117.19996 | 22 ft | 1 kts | 43° |
| 2026-04-17 00:13 | 32.73418 | -117.19964 | 22 ft | 15 kts | 13° |
| 2026-04-17 00:13 | 32.73480 | -117.19898 | 24 ft | 15 kts | 97° |
| 2026-04-17 00:13 | 32.73453 | -117.19780 | 25 ft | 14 kts | 106° |
| 2026-04-17 00:13 | 32.73423 | -117.19657 | 23 ft | 17 kts | 105° |
| 2026-04-17 00:14 | 32.73381 | -117.19489 | 24 ft | 24 kts | 105° |
| 2026-04-17 00:14 | 32.73332 | -117.19289 | 20 ft | 24 kts | 105° |
| 2026-04-17 00:14 | 32.73284 | -117.19091 | 23 ft | 25 kts | 106° |
| 2026-04-17 00:14 | 32.73235 | -117.18887 | 23 ft | 24 kts | 106° |
| 2026-04-17 00:15 | 32.73189 | -117.18697 | 24 ft | 24 kts | 105° |
| 2026-04-17 00:15 | 32.73141 | -117.18495 | 22 ft | 25 kts | 106° |
| 2026-04-17 00:15 | 32.73092 | -117.18287 | 21 ft | 27 kts | 105° |
| 2026-04-17 00:15 | 32.73041 | -117.18083 | 20 ft | 22 kts | 107° |
| 2026-04-17 00:16 | 32.73000 | -117.17919 | 17 ft | 18 kts | 106° |
| 2026-04-17 00:16 | 32.72968 | -117.17785 | 17 ft | 14 kts | 106° |
| 2026-04-17 00:16 | 32.72951 | -117.17713 | 17 ft | 6 kts | 103° |
| 2026-04-17 00:16 | 32.72952 | -117.17679 | 17 ft | 2 kts | 79° |
| 2026-04-17 00:17 | 32.72952 | -117.17677 | 17 ft | 0 kts | 73° |
| 2026-04-17 00:19 | 32.72957 | -117.17658 | 18 ft | 13 kts | 73° |
| 2026-04-17 00:19 | 32.73025 | -117.17619 | 19 ft | 12 kts | 318° |
| 2026-04-17 00:19 | 32.73047 | -117.17687 | 18 ft | 2 kts | 287° |
| 2026-04-17 00:20 | 32.73047 | -117.17688 | 18 ft | 0 kts | 287° |
| 2026-04-17 00:20 | 32.73062 | -117.17747 | 20 ft | 34 kts | 286° |
| 2026-04-17 00:21 | 32.73198 | -117.18317 | 22 ft | 105 kts | 286° |
| 2026-04-17 00:21 | 32.73457 | -117.19366 | 91 ft | 151 kts | 284° |
| 2026-04-17 00:21 | 32.73790 | -117.20567 | 680 ft | 157 kts | 288° |
| 2026-04-17 00:21 | 32.74363 | -117.21682 | 1425 ft | 159 kts | 302° |
| 2026-04-17 00:22 | 32.75662 | -117.24032 | 2370 ft | 191 kts | 301° |
| 2026-04-17 00:22 | 32.76430 | -117.25444 | 2742 ft | 216 kts | 302° |
| 2026-04-17 00:22 | 32.77294 | -117.27032 | 3185 ft | 241 kts | 302° |
| 2026-04-17 00:23 | 32.78247 | -117.28775 | 3790 ft | 259 kts | 302° |
| 2026-04-17 00:23 | 32.79244 | -117.30594 | 4698 ft | 265 kts | 302° |
| 2026-04-17 00:23 | 32.80279 | -117.32423 | 5670 ft | 268 kts | 305° |
| 2026-04-17 00:23 | 32.81394 | -117.34209 | 6647 ft | 270 kts | 306° |
| 2026-04-17 00:24 | 32.82551 | -117.35982 | 7572 ft | 273 kts | 307° |
| 2026-04-17 00:24 | 32.83729 | -117.37766 | 8478 ft | 276 kts | 308° |
| 2026-04-17 00:24 | 32.84926 | -117.39575 | 9378 ft | 280 kts | 308° |
| 2026-04-17 00:24 | 32.86132 | -117.41414 | 10192 ft | 286 kts | 307° |
| 2026-04-17 00:25 | 32.87414 | -117.43389 | 10520 ft | 309 kts | 307° |
| 2026-04-17 00:25 | 32.88755 | -117.45468 | 11073 ft | 322 kts | 307° |
| 2026-04-17 00:25 | 32.90128 | -117.47599 | 11827 ft | 327 kts | 307° |
| 2026-04-17 00:25 | 32.91517 | -117.49757 | 12592 ft | 331 kts | 307° |
| 2026-04-17 00:26 | 32.92924 | -117.51945 | 13373 ft | 335 kts | 307° |
| 2026-04-17 00:26 | 32.94348 | -117.54163 | 14099 ft | 339 kts | 308° |
| 2026-04-17 00:26 | 32.95788 | -117.56406 | 14786 ft | 343 kts | 308° |
| 2026-04-17 00:26 | 32.97240 | -117.58673 | 15475 ft | 346 kts | 307° |
| 2026-04-17 00:27 | 32.98707 | -117.60963 | 16154 ft | 349 kts | 307° |
| 2026-04-17 00:27 | 33.00187 | -117.63273 | 16836 ft | 353 kts | 307° |
| 2026-04-17 00:27 | 33.01681 | -117.65609 | 17518 ft | 356 kts | 307° |
| 2026-04-17 00:27 | 33.03185 | -117.67968 | 18182 ft | 359 kts | 307° |
| 2026-04-17 00:28 | 33.04707 | -117.70356 | 18757 ft | 363 kts | 307° |
| 2026-04-17 00:28 | 33.06286 | -117.72716 | 19332 ft | 366 kts | 313° |
| 2026-04-17 00:28 | 33.08164 | -117.74780 | 19906 ft | 369 kts | 320° |
| 2026-04-17 00:28 | 33.10125 | -117.76765 | 20497 ft | 372 kts | 320° |
| 2026-04-17 00:29 | 33.12105 | -117.78770 | 21089 ft | 375 kts | 320° |
| 2026-04-17 00:29 | 33.14099 | -117.80796 | 21675 ft | 378 kts | 320° |
| 2026-04-17 00:29 | 33.16103 | -117.82835 | 22260 ft | 380 kts | 320° |
| 2026-04-17 00:29 | 33.18124 | -117.84893 | 22844 ft | 383 kts | 320° |
| 2026-04-17 00:30 | 33.20162 | -117.86966 | 23421 ft | 386 kts | 321° |
| 2026-04-17 00:30 | 33.22230 | -117.89020 | 23919 ft | 389 kts | 321° |
| 2026-04-17 00:30 | 33.24336 | -117.91072 | 24384 ft | 391 kts | 322° |
| 2026-04-17 00:30 | 33.26462 | -117.93129 | 24833 ft | 394 kts | 322° |
| 2026-04-17 00:31 | 33.28597 | -117.95192 | 25278 ft | 397 kts | 321° |
| 2026-04-17 00:31 | 33.30752 | -117.97281 | 25715 ft | 399 kts | 321° |
| 2026-04-17 00:31 | 33.32863 | -117.99334 | 26129 ft | 402 kts | 321° |
| 2026-04-17 00:31 | 33.35034 | -118.01456 | 26553 ft | 404 kts | 321° |
| 2026-04-17 00:32 | 33.37220 | -118.03596 | 26976 ft | 407 kts | 321° |
| 2026-04-17 00:32 | 33.39417 | -118.05747 | 27368 ft | 410 kts | 321° |
| 2026-04-17 00:32 | 33.41614 | -118.07899 | 27769 ft | 412 kts | 321° |
| 2026-04-17 00:32 | 33.43851 | -118.10094 | 27954 ft | 413 kts | 321° |
| 2026-04-17 00:33 | 33.46030 | -118.12235 | 27982 ft | 396 kts | 321° |
| 2026-04-17 00:33 | 33.48128 | -118.14296 | 27982 ft | 385 kts | 321° |
| 2026-04-17 00:33 | 33.50187 | -118.16322 | 27981 ft | 382 kts | 321° |
| 2026-04-17 00:33 | 33.52237 | -118.18339 | 27980 ft | 380 kts | 321° |
| 2026-04-17 00:34 | 33.54279 | -118.20350 | 27981 ft | 380 kts | 321° |
| 2026-04-17 00:34 | 33.56344 | -118.22385 | 27979 ft | 379 kts | 322° |
| 2026-04-17 00:34 | 33.58545 | -118.24116 | 27979 ft | 379 kts | 332° |
| 2026-04-17 00:34 | 33.60930 | -118.25457 | 27963 ft | 379 kts | 335° |
| 2026-04-17 00:35 | 33.63329 | -118.26771 | 27962 ft | 379 kts | 335° |
| 2026-04-17 00:35 | 33.65724 | -118.28086 | 27966 ft | 378 kts | 335° |
| 2026-04-17 00:35 | 33.68070 | -118.29378 | 27960 ft | 378 kts | 335° |
| 2026-04-17 00:35 | 33.70460 | -118.30697 | 27961 ft | 378 kts | 335° |
| 2026-04-17 00:36 | 33.72847 | -118.32015 | 27958 ft | 378 kts | 335° |
| 2026-04-17 00:36 | 33.75239 | -118.33334 | 27959 ft | 378 kts | 335° |
| 2026-04-17 00:36 | 33.77633 | -118.34631 | 27957 ft | 378 kts | 336° |
| 2026-04-17 00:36 | 33.80048 | -118.35872 | 27956 ft | 377 kts | 336° |
| 2026-04-17 00:37 | 33.82474 | -118.37081 | 27956 ft | 377 kts | 337° |
| 2026-04-17 00:37 | 33.84901 | -118.38280 | 27960 ft | 377 kts | 337° |
| 2026-04-17 00:37 | 33.87326 | -118.39485 | 27968 ft | 377 kts | 336° |
| 2026-04-17 00:37 | 33.89744 | -118.40695 | 27971 ft | 377 kts | 336° |
| 2026-04-17 00:38 | 33.92163 | -118.41913 | 27968 ft | 376 kts | 336° |
| 2026-04-17 00:38 | 33.94580 | -118.43132 | 27970 ft | 376 kts | 336° |
| 2026-04-17 00:38 | 33.96992 | -118.44350 | 27968 ft | 376 kts | 336° |
| 2026-04-17 00:38 | 33.99420 | -118.45525 | 27967 ft | 376 kts | 341° |
| 2026-04-17 00:39 | 34.01963 | -118.46257 | 27967 ft | 377 kts | 351° |
| 2026-04-17 00:39 | 34.04567 | -118.46658 | 27964 ft | 377 kts | 351° |
| 2026-04-17 00:39 | 34.07170 | -118.47052 | 27964 ft | 377 kts | 351° |
| 2026-04-17 00:39 | 34.09768 | -118.47446 | 27963 ft | 377 kts | 351° |
| 2026-04-17 00:40 | 34.12371 | -118.47844 | 27926 ft | 377 kts | 351° |
| 2026-04-17 00:40 | 34.14999 | -118.48250 | 27926 ft | 376 kts | 351° |
| 2026-04-17 00:40 | 34.17600 | -118.48652 | 27927 ft | 376 kts | 351° |
| 2026-04-17 00:40 | 34.20199 | -118.49053 | 27928 ft | 376 kts | 351° |
| 2026-04-17 00:41 | 34.22793 | -118.49451 | 27927 ft | 376 kts | 351° |
| 2026-04-17 00:41 | 34.25391 | -118.49851 | 27924 ft | 376 kts | 351° |
| 2026-04-17 00:41 | 34.27983 | -118.50250 | 27924 ft | 376 kts | 351° |
| 2026-04-17 00:41 | 34.30582 | -118.50654 | 27963 ft | 376 kts | 351° |
| 2026-04-17 00:42 | 34.33175 | -118.51058 | 27959 ft | 376 kts | 351° |
| 2026-04-17 00:42 | 34.35771 | -118.51453 | 27963 ft | 376 kts | 351° |
| 2026-04-17 00:42 | 34.37492 | -118.51716 | 27960 ft | 376 kts | 351° |
| 2026-04-17 00:42 | 34.40083 | -118.52112 | 27958 ft | 376 kts | 351° |
| 2026-04-17 00:43 | 34.42679 | -118.52511 | 27961 ft | 376 kts | 351° |
| 2026-04-17 00:43 | 34.45275 | -118.52915 | 27957 ft | 376 kts | 351° |
| 2026-04-17 00:43 | 34.47866 | -118.53319 | 27957 ft | 376 kts | 351° |
| 2026-04-17 00:43 | 34.50458 | -118.53719 | 27960 ft | 375 kts | 351° |
| 2026-04-17 00:44 | 34.53046 | -118.54121 | 27958 ft | 375 kts | 351° |
| 2026-04-17 00:44 | 34.55635 | -118.54525 | 27957 ft | 375 kts | 351° |
| 2026-04-17 00:44 | 34.58221 | -118.54925 | 27957 ft | 375 kts | 351° |
| 2026-04-17 00:44 | 34.60807 | -118.55324 | 27958 ft | 374 kts | 350° |
| 2026-04-17 00:45 | 34.63389 | -118.55722 | 27960 ft | 374 kts | 350° |
| 2026-04-17 00:45 | 34.66005 | -118.56125 | 27960 ft | 373 kts | 350° |
| 2026-04-17 00:45 | 34.68578 | -118.56526 | 27965 ft | 373 kts | 350° |
| 2026-04-17 00:45 | 34.71153 | -118.56931 | 27965 ft | 373 kts | 350° |
| 2026-04-17 00:46 | 34.73723 | -118.57334 | 27970 ft | 373 kts | 350° |
| 2026-04-17 00:46 | 34.76294 | -118.57736 | 27970 ft | 372 kts | 350° |
| 2026-04-17 00:46 | 34.78863 | -118.58136 | 27973 ft | 372 kts | 350° |
| 2026-04-17 00:46 | 34.81423 | -118.58535 | 27976 ft | 371 kts | 350° |
| 2026-04-17 00:47 | 34.83983 | -118.58934 | 27979 ft | 371 kts | 350° |
| 2026-04-17 00:47 | 34.86544 | -118.59331 | 27997 ft | 370 kts | 350° |
| 2026-04-17 00:47 | 34.91647 | -118.60132 | 28011 ft | 369 kts | 350° |
| 2026-04-17 00:48 | 34.96747 | -118.60934 | 28019 ft | 370 kts | 350° |
| 2026-04-17 00:48 | 35.01647 | -118.62582 | 28021 ft | 364 kts | 332° |
| 2026-04-17 00:49 | 35.03788 | -118.64211 | 28018 ft | 363 kts | 321° |
| 2026-04-17 00:49 | 35.05730 | -118.66178 | 28017 ft | 362 kts | 320° |
| 2026-04-17 00:49 | 35.09607 | -118.70113 | 28003 ft | 363 kts | 320° |
| 2026-04-17 00:50 | 35.11552 | -118.72077 | 27993 ft | 363 kts | 320° |
| 2026-04-17 00:50 | 35.13494 | -118.74037 | 27997 ft | 363 kts | 320° |
| 2026-04-17 00:50 | 35.15438 | -118.76004 | 27991 ft | 363 kts | 320° |
| 2026-04-17 00:50 | 35.17379 | -118.77974 | 27997 ft | 363 kts | 320° |
| 2026-04-17 00:51 | 35.19319 | -118.79946 | 27988 ft | 363 kts | 320° |
| 2026-04-17 00:51 | 35.21260 | -118.81920 | 27985 ft | 363 kts | 320° |
| 2026-04-17 00:51 | 35.23199 | -118.83893 | 27987 ft | 363 kts | 320° |
| 2026-04-17 00:51 | 35.25135 | -118.85872 | 27988 ft | 363 kts | 320° |
| 2026-04-17 00:52 | 35.27070 | -118.87852 | 27982 ft | 362 kts | 320° |
| 2026-04-17 00:52 | 35.29003 | -118.89824 | 27979 ft | 362 kts | 320° |
| 2026-04-17 00:52 | 35.30939 | -118.91798 | 27988 ft | 362 kts | 320° |
| 2026-04-17 00:52 | 35.32901 | -118.93797 | 27989 ft | 362 kts | 320° |
| 2026-04-17 00:53 | 35.34831 | -118.95767 | 27992 ft | 362 kts | 320° |
| 2026-04-17 00:53 | 35.36762 | -118.97741 | 27987 ft | 361 kts | 320° |
| 2026-04-17 00:53 | 35.38694 | -118.99715 | 27996 ft | 361 kts | 320° |
| 2026-04-17 00:53 | 35.40620 | -119.01687 | 27982 ft | 361 kts | 320° |
| 2026-04-17 00:54 | 35.42548 | -119.03665 | 27993 ft | 361 kts | 320° |
| 2026-04-17 00:54 | 35.44470 | -119.05638 | 27933 ft | 359 kts | 320° |
| 2026-04-17 00:54 | 35.46478 | -119.07398 | 27679 ft | 352 kts | 330° |
| 2026-04-17 00:54 | 35.48722 | -119.08547 | 27265 ft | 350 kts | 342° |
| 2026-04-17 00:55 | 35.51117 | -119.09025 | 26838 ft | 350 kts | 355° |
| 2026-04-17 00:55 | 35.53550 | -119.08841 | 26385 ft | 352 kts | 4° |
| 2026-04-17 00:55 | 35.55968 | -119.08404 | 25932 ft | 350 kts | 4° |
| 2026-04-17 00:55 | 35.58374 | -119.07970 | 25468 ft | 348 kts | 4° |
| 2026-04-17 00:56 | 35.60765 | -119.07538 | 24998 ft | 347 kts | 4° |
| 2026-04-17 00:56 | 35.63155 | -119.07109 | 24522 ft | 346 kts | 4° |
| 2026-04-17 00:56 | 35.65538 | -119.06685 | 24044 ft | 346 kts | 3° |
| 2026-04-17 00:56 | 35.67919 | -119.06262 | 23555 ft | 345 kts | 3° |
| 2026-04-17 00:57 | 35.70296 | -119.05838 | 23020 ft | 344 kts | 3° |
| 2026-04-17 00:57 | 35.72656 | -119.05422 | 22547 ft | 342 kts | 3° |
| 2026-04-17 00:57 | 35.74999 | -119.05006 | 22081 ft | 339 kts | 3° |
| 2026-04-17 00:57 | 35.77330 | -119.04586 | 21621 ft | 337 kts | 3° |
| 2026-04-17 00:58 | 35.79644 | -119.04169 | 21180 ft | 335 kts | 3° |
| 2026-04-17 00:58 | 35.81944 | -119.03755 | 20735 ft | 333 kts | 3° |
| 2026-04-17 00:58 | 35.84228 | -119.03345 | 20294 ft | 331 kts | 3° |
| 2026-04-17 00:58 | 35.86502 | -119.02937 | 19854 ft | 329 kts | 3° |
| 2026-04-17 00:59 | 35.88763 | -119.02537 | 19445 ft | 326 kts | 1° |
| 2026-04-17 00:59 | 35.91002 | -119.02493 | 19048 ft | 318 kts | 350° |
| 2026-04-17 00:59 | 35.93151 | -119.02999 | 18661 ft | 312 kts | 340° |
| 2026-04-17 00:59 | 35.95203 | -119.03929 | 18273 ft | 308 kts | 336° |
| 2026-04-17 01:00 | 35.97195 | -119.04877 | 17876 ft | 305 kts | 336° |
| 2026-04-17 01:00 | 35.99168 | -119.05812 | 17510 ft | 302 kts | 336° |
| 2026-04-17 01:00 | 36.01115 | -119.06733 | 17150 ft | 298 kts | 336° |
| 2026-04-17 01:00 | 36.03042 | -119.07648 | 16797 ft | 295 kts | 336° |
| 2026-04-17 01:01 | 36.04950 | -119.08556 | 16448 ft | 292 kts | 336° |
| 2026-04-17 01:01 | 36.06838 | -119.09456 | 16103 ft | 290 kts | 336° |
| 2026-04-17 01:01 | 36.08711 | -119.10348 | 15767 ft | 287 kts | 337° |
| 2026-04-17 01:01 | 36.10570 | -119.11235 | 15431 ft | 286 kts | 337° |
| 2026-04-17 01:02 | 36.12420 | -119.12117 | 15092 ft | 284 kts | 337° |
| 2026-04-17 01:02 | 36.14257 | -119.12993 | 14767 ft | 282 kts | 337° |
| 2026-04-17 01:02 | 36.16086 | -119.13866 | 14430 ft | 281 kts | 337° |
| 2026-04-17 01:02 | 36.17910 | -119.14735 | 14096 ft | 280 kts | 337° |
| 2026-04-17 01:03 | 36.19726 | -119.15602 | 13757 ft | 279 kts | 337° |
| 2026-04-17 01:03 | 36.21536 | -119.16471 | 13393 ft | 278 kts | 337° |
| 2026-04-17 01:03 | 36.23334 | -119.17335 | 13055 ft | 276 kts | 337° |
| 2026-04-17 01:03 | 36.25114 | -119.18190 | 12724 ft | 274 kts | 338° |
| 2026-04-17 01:04 | 36.26886 | -119.19040 | 12383 ft | 272 kts | 338° |
| 2026-04-17 01:04 | 36.28647 | -119.19883 | 12043 ft | 271 kts | 338° |
| 2026-04-17 01:04 | 36.30399 | -119.20719 | 11708 ft | 269 kts | 338° |
| 2026-04-17 01:04 | 36.32143 | -119.21551 | 11363 ft | 268 kts | 338° |
| 2026-04-17 01:05 | 36.33878 | -119.22383 | 11020 ft | 267 kts | 338° |
| 2026-04-17 01:05 | 36.35606 | -119.23216 | 10670 ft | 266 kts | 338° |
| 2026-04-17 01:05 | 36.37310 | -119.24121 | 10164 ft | 270 kts | 328° |
| 2026-04-17 01:05 | 36.38803 | -119.25487 | 9768 ft | 259 kts | 322° |
| 2026-04-17 01:06 | 36.40186 | -119.26810 | 9421 ft | 247 kts | 322° |
| 2026-04-17 01:06 | 36.41569 | -119.28133 | 8721 ft | 249 kts | 322° |
| 2026-04-17 01:06 | 36.42933 | -119.29439 | 8456 ft | 248 kts | 322° |
| 2026-04-17 01:06 | 36.44302 | -119.30752 | 8123 ft | 249 kts | 323° |
| 2026-04-17 01:07 | 36.45672 | -119.32065 | 7767 ft | 248 kts | 323° |
| 2026-04-17 01:07 | 36.47009 | -119.33348 | 7624 ft | 237 kts | 323° |
| 2026-04-17 01:07 | 36.48283 | -119.34568 | 7484 ft | 226 kts | 323° |
| 2026-04-17 01:07 | 36.49512 | -119.35746 | 7247 ft | 222 kts | 323° |
| 2026-04-17 01:08 | 36.50725 | -119.36908 | 6972 ft | 219 kts | 323° |
| 2026-04-17 01:08 | 36.51931 | -119.38064 | 6535 ft | 224 kts | 323° |
| 2026-04-17 01:08 | 36.53176 | -119.39258 | 6079 ft | 228 kts | 323° |
| 2026-04-17 01:08 | 36.54456 | -119.40487 | 5513 ft | 236 kts | 323° |
| 2026-04-17 01:09 | 36.55766 | -119.41747 | 5114 ft | 237 kts | 323° |
| 2026-04-17 01:09 | 36.57054 | -119.42989 | 4815 ft | 232 kts | 324° |
| 2026-04-17 01:09 | 36.58325 | -119.44213 | 4504 ft | 229 kts | 323° |
| 2026-04-17 01:09 | 36.59572 | -119.45416 | 4200 ft | 225 kts | 323° |
| 2026-04-17 01:10 | 36.60790 | -119.46591 | 4012 ft | 216 kts | 323° |
| 2026-04-17 01:10 | 36.61950 | -119.47711 | 3897 ft | 206 kts | 322° |
| 2026-04-17 01:10 | 36.63058 | -119.48778 | 3775 ft | 198 kts | 323° |
| 2026-04-17 01:10 | 36.64121 | -119.49803 | 3653 ft | 190 kts | 322° |
| 2026-04-17 01:11 | 36.65149 | -119.50797 | 3524 ft | 184 kts | 322° |
| 2026-04-17 01:11 | 36.66124 | -119.51818 | 3404 ft | 183 kts | 313° |
| 2026-04-17 01:11 | 36.66935 | -119.53046 | 3282 ft | 183 kts | 308° |
| 2026-04-17 01:11 | 36.67692 | -119.54321 | 3151 ft | 183 kts | 307° |
| 2026-04-17 01:12 | 36.68432 | -119.55597 | 3072 ft | 177 kts | 307° |
| 2026-04-17 01:12 | 36.69121 | -119.56795 | 2962 ft | 166 kts | 307° |
| 2026-04-17 01:12 | 36.69779 | -119.57942 | 2774 ft | 160 kts | 307° |
| 2026-04-17 01:12 | 36.70404 | -119.59032 | 2558 ft | 147 kts | 307° |
| 2026-04-17 01:13 | 36.70978 | -119.60032 | 2393 ft | 138 kts | 307° |
| 2026-04-17 01:13 | 36.71521 | -119.60981 | 2226 ft | 132 kts | 307° |
| 2026-04-17 01:13 | 36.72055 | -119.61911 | 2053 ft | 132 kts | 307° |
| 2026-04-17 01:13 | 36.72584 | -119.62835 | 1882 ft | 130 kts | 307° |
| 2026-04-17 01:14 | 36.73110 | -119.63753 | 1702 ft | 131 kts | 305° |
| 2026-04-17 01:14 | 36.73641 | -119.64681 | 1514 ft | 131 kts | 307° |
| 2026-04-17 01:14 | 36.74169 | -119.65603 | 1345 ft | 131 kts | 307° |
| 2026-04-17 01:14 | 36.74699 | -119.66529 | 1158 ft | 131 kts | 307° |
| 2026-04-17 01:15 | 36.75223 | -119.67455 | 972 ft | 130 kts | 307° |
| 2026-04-17 01:15 | 36.75576 | -119.68070 | 891 ft | 129 kts | 306° |
| 2026-04-17 01:15 | 36.76098 | -119.68979 | 700 ft | 127 kts | 306° |
| 2026-04-17 01:15 | 36.76615 | -119.69883 | 476 ft | 127 kts | 307° |
| 2026-04-17 01:16 | 36.77116 | -119.70763 | 357 ft | 117 kts | 307° |
| 2026-04-17 01:16 | 36.77527 | -119.71477 | 342 ft | 80 kts | 306° |
| 2026-04-17 01:16 | 36.77761 | -119.71890 | 340 ft | 46 kts | 304° |
| 2026-04-17 01:16 | 36.77920 | -119.72166 | 335 ft | 28 kts | 305° |
| 2026-04-17 01:17 | 36.78007 | -119.72346 | 339 ft | 21 kts | 273° |
| 2026-04-17 01:17 | 36.77950 | -119.72429 | 336 ft | 7 kts | 212° |
| 2026-04-17 01:17 | 36.77891 | -119.72480 | 338 ft | 17 kts | 216° |
| 2026-04-17 01:17 | 36.77792 | -119.72553 | 339 ft | 16 kts | 181° |
| 2026-04-17 01:18 | 36.77715 | -119.72459 | 339 ft | 19 kts | 124° |
| 2026-04-17 01:18 | 36.77636 | -119.72321 | 340 ft | 19 kts | 125° |
| 2026-04-17 01:18 | 36.77562 | -119.72191 | 337 ft | 18 kts | 123° |
| 2026-04-17 01:18 | 36.77494 | -119.72068 | 337 ft | 17 kts | 126° |
| 2026-04-17 01:19 | 36.77408 | -119.71992 | 340 ft | 15 kts | 157° |
| 2026-04-17 01:19 | 36.77336 | -119.71911 | 337 ft | 13 kts | 124° |
| 2026-04-17 01:19 | 36.77287 | -119.71823 | 340 ft | 11 kts | 125° |
| 2026-04-17 01:19 | 36.77238 | -119.71764 | 341 ft | 9 kts | 171° |
| 2026-04-17 01:20 | 36.77204 | -119.71790 | 339 ft | 5 kts | 227° |
| 2026-04-17 01:20 | 36.77198 | -119.71801 | 340 ft | 2 kts | 234° |
| 2026-04-17 01:20 | 36.77197 | -119.71802 | 340 ft | 0 kts | 234° |